createdAt,value
2017-02-02T00:01:08.006Z,4.26
2017-02-02T00:02:18.759Z,4.29
2017-02-02T00:03:29.516Z,4.28
2017-02-02T00:04:40.257Z,4.3
2017-02-02T00:05:50.610Z,4.35
2017-02-02T00:07:01.358Z,4.29
2017-02-02T00:08:11.758Z,4.35
2017-02-02T00:09:22.103Z,4.4
2017-02-02T00:10:32.839Z,4.32
2017-02-02T00:11:42.794Z,4.29
2017-02-02T00:12:53.558Z,4.26
2017-02-02T00:14:03.938Z,4.38
2017-02-02T00:15:13.893Z,4.22
2017-02-02T00:16:24.242Z,4.22
2017-02-02T00:17:34.983Z,4.29
2017-02-02T00:18:45.726Z,4.24
2017-02-02T00:19:56.082Z,4.22
2017-02-02T00:21:06.831Z,4.21
2017-02-02T00:22:17.579Z,4.26
2017-02-02T00:23:28.325Z,4.29
2017-02-02T00:24:39.069Z,4.28
2017-02-02T00:25:49.415Z,4.28
2017-02-02T00:27:00.191Z,4.36
2017-02-02T00:28:11.187Z,4.42
2017-02-02T00:29:21.932Z,4.36
2017-02-02T00:30:31.107Z,4.36
2017-02-02T00:31:40.675Z,4.35
2017-02-02T00:32:51.018Z,4.33
2017-02-02T00:34:01.367Z,4.17
2017-02-02T00:35:12.111Z,4.14
2017-02-02T00:36:22.715Z,4.17
2017-02-02T00:37:33.071Z,4.2
2017-02-02T00:38:43.829Z,4.18
2017-02-02T00:39:54.575Z,4.17
2017-02-02T00:41:04.941Z,4.29
2017-02-02T00:42:14.504Z,4.26
2017-02-02T00:43:25.294Z,4.15
2017-02-02T00:44:36.034Z,4.24
2017-02-02T00:45:46.390Z,4.28
2017-02-02T00:46:56.740Z,4.4
2017-02-02T00:48:06.694Z,4.44
2017-02-02T00:49:17.470Z,4.42
2017-02-02T00:50:27.825Z,4.47
2017-02-02T00:51:38.572Z,4.42
2017-02-02T00:52:49.308Z,4.47
2017-02-02T00:54:00.054Z,4.58
2017-02-02T00:55:10.003Z,4.47
2017-02-02T00:56:20.350Z,4.4
2017-02-02T00:57:30.715Z,4.53
2017-02-02T00:58:41.476Z,4.48
2017-02-02T00:59:52.233Z,4.51
2017-02-02T01:01:02.951Z,4.56
2017-02-02T01:02:13.282Z,4.5
2017-02-02T01:03:23.609Z,4.53
2017-02-02T01:04:33.968Z,4.53
2017-02-02T01:05:44.310Z,4.51
2017-02-02T01:06:54.686Z,4.54
2017-02-02T01:08:05.420Z,4.54
2017-02-02T01:09:16.150Z,4.57
2017-02-02T01:10:26.913Z,4.51
2017-02-02T01:11:37.263Z,4.54
2017-02-02T01:12:47.600Z,4.5
2017-02-02T01:13:57.563Z,4.64
2017-02-02T01:15:08.298Z,4.65
2017-02-02T01:16:19.048Z,4.65
2017-02-02T01:17:29.804Z,4.66
2017-02-02T01:18:40.570Z,4.68
2017-02-02T01:19:50.924Z,4.69
2017-02-02T01:21:01.670Z,4.61
2017-02-02T01:22:12.023Z,4.65
2017-02-02T01:23:21.984Z,4.58
2017-02-02T01:24:32.338Z,4.64
2017-02-02T01:25:43.083Z,4.65
2017-02-02T01:26:53.430Z,4.61
2017-02-02T01:28:03.772Z,4.65
2017-02-02T01:29:14.508Z,4.64
2017-02-02T01:30:25.265Z,4.65
2017-02-02T01:31:36.006Z,4.57
2017-02-02T01:32:45.968Z,4.65
2017-02-02T01:33:55.925Z,4.58
2017-02-02T01:35:06.666Z,4.65
2017-02-02T01:36:17.408Z,4.64
2017-02-02T01:37:28.146Z,4.6
2017-02-02T01:38:38.499Z,4.61
2017-02-02T01:39:48.860Z,4.64
2017-02-02T01:40:59.211Z,4.74
2017-02-02T01:42:09.962Z,4.71
2017-02-02T01:43:20.696Z,4.74
2017-02-02T01:44:31.437Z,4.68
2017-02-02T01:45:42.194Z,4.66
2017-02-02T01:46:52.150Z,4.74
2017-02-02T01:48:02.513Z,4.68
2017-02-02T01:49:13.259Z,4.71
2017-02-02T01:50:24.006Z,4.74
2017-02-02T01:51:34.356Z,4.6
2017-02-02T01:52:45.105Z,4.61
2017-02-02T01:53:55.859Z,4.6
2017-02-02T01:55:06.207Z,4.6
2017-02-02T01:56:16.954Z,4.75
2017-02-02T01:57:27.306Z,4.69
2017-02-02T01:58:38.047Z,4.71
2017-02-02T01:59:48.801Z,4.72
2017-02-02T02:00:59.155Z,4.75
2017-02-02T02:02:09.897Z,4.69
2017-02-02T02:03:19.860Z,4.71
2017-02-02T02:04:30.842Z,4.72
2017-02-02T02:05:41.586Z,4.79
2017-02-02T02:06:52.341Z,4.79
2017-02-02T02:08:02.707Z,4.71
2017-02-02T02:09:13.053Z,4.71
2017-02-02T02:10:23.783Z,4.61
2017-02-02T02:11:33.344Z,4.51
2017-02-02T02:12:44.086Z,4.51
2017-02-02T02:13:54.421Z,4.54
2017-02-02T02:15:04.372Z,4.53
2017-02-02T02:16:14.723Z,4.5
2017-02-02T02:17:25.463Z,4.5
2017-02-02T02:18:36.213Z,4.53
2017-02-02T02:19:46.976Z,4.54
2017-02-02T02:20:57.328Z,4.53
2017-02-02T02:22:07.287Z,4.53
2017-02-02T02:23:18.041Z,4.51
2017-02-02T02:24:28.781Z,4.53
2017-02-02T02:25:39.121Z,4.5
2017-02-02T02:26:49.858Z,4.57
2017-02-02T02:28:00.208Z,4.54
2017-02-02T02:29:10.947Z,4.58
2017-02-02T02:30:21.690Z,4.6
2017-02-02T02:31:32.051Z,4.56
2017-02-02T02:32:42.418Z,4.6
2017-02-02T02:33:53.180Z,4.66
2017-02-02T02:35:02.736Z,4.61
2017-02-02T02:36:13.103Z,4.61
2017-02-02T02:37:23.458Z,4.56
2017-02-02T02:38:34.198Z,4.64
2017-02-02T02:39:44.943Z,4.53
2017-02-02T02:40:55.293Z,4.51
2017-02-02T02:42:06.035Z,4.5
2017-02-02T02:43:16.377Z,4.48
2017-02-02T02:44:27.122Z,4.5
2017-02-02T02:45:37.470Z,4.57
2017-02-02T02:46:48.201Z,4.58
2017-02-02T02:47:58.171Z,4.61
2017-02-02T02:49:08.924Z,4.68
2017-02-02T02:50:19.293Z,4.71
2017-02-02T02:51:30.025Z,4.72
2017-02-02T02:52:40.755Z,4.69
2017-02-02T02:53:50.317Z,4.75
2017-02-02T02:55:01.090Z,4.72
2017-02-02T02:56:11.838Z,4.83
2017-02-02T02:57:22.178Z,4.72
2017-02-02T02:58:32.541Z,4.74
2017-02-02T02:59:43.321Z,4.74
2017-02-02T03:00:53.269Z,4.66
2017-02-02T03:32:51.223Z,1
2017-02-02T03:34:02.430Z,0.94
2017-02-02T03:35:13.159Z,0.96
2017-02-02T03:36:23.900Z,1.08
2017-02-02T03:37:34.243Z,1.11
2017-02-02T03:38:44.588Z,1.21
2017-02-02T03:39:54.529Z,1.3
2017-02-02T03:41:04.872Z,1.44
2017-02-02T03:42:14.823Z,1.61
2017-02-02T03:43:25.161Z,1.65
2017-02-02T03:44:35.111Z,1.89
2017-02-02T03:45:45.853Z,2.05
2017-02-02T03:46:55.420Z,2.23
2017-02-02T03:48:06.177Z,2.29
2017-02-02T03:49:16.510Z,2.52
2017-02-02T03:50:27.243Z,2.62
2017-02-02T03:51:37.602Z,2.7
2017-02-02T03:52:47.941Z,2.78
2017-02-02T03:53:58.677Z,2.9
2017-02-02T03:55:08.626Z,2.98
2017-02-02T03:56:19.369Z,3.05
2017-02-02T03:57:29.722Z,3.11
2017-02-02T03:58:40.068Z,3.2
2017-02-02T03:59:50.422Z,3.32
2017-02-02T04:01:00.395Z,3.34
2017-02-02T04:02:11.133Z,3.45
2017-02-02T04:03:21.878Z,3.4
2017-02-02T04:04:32.214Z,3.49
2017-02-02T04:05:42.948Z,3.57
2017-02-02T04:06:52.903Z,3.56
2017-02-02T04:08:02.867Z,3.67
2017-02-02T04:09:13.628Z,3.63
2017-02-02T04:10:24.378Z,3.63
2017-02-02T04:11:34.736Z,3.76
2017-02-02T04:12:45.079Z,3.79
2017-02-02T04:13:55.811Z,3.85
2017-02-02T04:15:06.557Z,3.96
2017-02-02T04:16:17.293Z,4.04
2017-02-02T04:17:28.032Z,4.04
2017-02-02T04:18:37.199Z,4.03
2017-02-02T04:19:47.152Z,4.1
2017-02-02T04:20:58.094Z,4.18
2017-02-02T04:22:08.099Z,4.12
2017-02-02T04:23:18.850Z,4.14
2017-02-02T04:24:29.610Z,4.15
2017-02-02T04:25:39.559Z,4.08
2017-02-02T04:26:50.293Z,4.08
2017-02-02T04:28:00.654Z,4.12
2017-02-02T04:29:11.003Z,4.1
2017-02-02T04:30:21.351Z,4.08
2017-02-02T04:31:32.105Z,4.11
2017-02-02T04:32:42.456Z,4.11
2017-02-02T04:33:52.412Z,4.08
2017-02-02T04:35:03.167Z,4.02
2017-02-02T04:36:13.504Z,4
2017-02-02T04:37:24.244Z,4
2017-02-02T04:38:34.190Z,3.99
2017-02-02T04:39:44.152Z,3.9
2017-02-02T04:40:54.505Z,4.02
2017-02-02T04:42:05.246Z,4.02
2017-02-02T04:43:15.596Z,3.96
2017-02-02T04:44:25.955Z,4
2017-02-02T04:45:36.304Z,4.08
2017-02-02T04:46:46.250Z,4.08
2017-02-02T04:47:56.625Z,4.1
2017-02-02T04:49:07.371Z,4.1
2017-02-02T04:50:17.712Z,4.03
2017-02-02T04:51:28.448Z,4.1
2017-02-02T04:52:39.194Z,4.1
2017-02-02T04:53:49.534Z,4.11
2017-02-02T04:54:59.899Z,4.15
2017-02-02T04:56:10.265Z,4.14
2017-02-02T04:57:20.607Z,4.15
2017-02-02T04:58:30.581Z,4.15
2017-02-02T04:59:41.329Z,4.17
2017-02-02T05:00:52.065Z,4.14
2017-02-02T05:02:02.418Z,4.21
2017-02-02T05:03:12.026Z,4.17
2017-02-02T05:04:22.378Z,4.12
2017-02-02T05:05:32.723Z,4.15
2017-02-02T05:06:43.456Z,4.24
2017-02-02T05:07:54.203Z,4.2
2017-02-02T05:09:04.944Z,4.14
2017-02-02T05:10:15.676Z,4.18
2017-02-02T05:11:26.037Z,4.14
2017-02-02T05:12:36.408Z,4.22
2017-02-02T05:13:46.367Z,4.28
2017-02-02T05:14:57.137Z,4.33
2017-02-02T05:16:07.874Z,4.15
2017-02-02T05:17:18.225Z,4.15
2017-02-02T05:18:28.969Z,4.17
2017-02-02T05:19:39.714Z,4.21
2017-02-02T05:20:50.464Z,4.21
2017-02-02T05:22:00.844Z,4.26
2017-02-02T05:23:10.814Z,4.22
2017-02-02T05:24:21.559Z,4.12
2017-02-02T05:25:32.299Z,4.24
2017-02-02T05:26:41.860Z,4.21
2017-02-02T05:27:52.207Z,4.12
2017-02-02T05:29:02.965Z,4.24
2017-02-02T05:30:13.719Z,4.3
2017-02-02T05:31:24.461Z,4.24
2017-02-02T05:32:35.021Z,4.2
2017-02-02T05:33:45.370Z,4.28
2017-02-02T05:34:56.114Z,4.3
2017-02-02T05:36:06.855Z,4.28
2017-02-02T05:37:17.197Z,4.26
2017-02-02T05:38:27.963Z,4.32
2017-02-02T05:39:37.932Z,4.28
2017-02-02T05:40:48.284Z,4.33
2017-02-02T05:41:59.031Z,4.3
2017-02-02T05:43:09.776Z,4.15
2017-02-02T05:44:19.727Z,4.2
2017-02-02T05:45:30.467Z,4.24
2017-02-02T05:46:41.214Z,4.18
2017-02-02T05:47:51.601Z,4.15
2017-02-02T05:49:01.944Z,4.24
2017-02-02T05:50:12.679Z,4.21
2017-02-02T05:51:23.026Z,4.18
2017-02-02T05:52:33.367Z,4.18
2017-02-02T05:53:43.729Z,4.22
2017-02-02T05:54:54.084Z,4.24
2017-02-02T05:56:04.823Z,4.29
2017-02-02T05:57:15.166Z,4.21
2017-02-02T05:58:25.520Z,4.22
2017-02-02T05:59:36.269Z,4.2
2017-02-02T06:00:47.036Z,4.2
2017-02-02T06:01:57.386Z,4.22
2017-02-02T06:03:07.346Z,4.17
2017-02-02T06:04:18.111Z,4.22
2017-02-02T06:05:28.850Z,4.2
2017-02-02T06:06:39.200Z,4.21
2017-02-02T06:07:49.166Z,4.22
2017-02-02T06:08:59.151Z,4.2
2017-02-02T06:10:09.533Z,4.18
2017-02-02T06:11:19.879Z,4.21
2017-02-02T06:12:30.243Z,4.18
2017-02-02T06:13:40.595Z,4.18
2017-02-02T06:14:50.553Z,4.2
2017-02-02T06:16:01.303Z,4.24
2017-02-02T06:17:12.043Z,4.07
2017-02-02T06:18:22.783Z,4.1
2017-02-02T06:19:33.139Z,4.07
2017-02-02T06:20:43.891Z,4.02
2017-02-02T06:21:54.232Z,4.02
2017-02-02T06:23:04.609Z,3.99
2017-02-02T06:24:14.572Z,4.04
2017-02-02T06:25:24.525Z,4.08
2017-02-02T06:26:34.874Z,3.94
2017-02-02T06:27:45.254Z,3.99
2017-02-02T06:28:55.992Z,3.93
2017-02-02T06:30:06.751Z,3.85
2017-02-02T06:31:17.506Z,3.93
2017-02-02T06:32:27.852Z,3.97
2017-02-02T06:33:37.814Z,3.96
2017-02-02T06:34:48.580Z,3.92
2017-02-02T06:35:58.547Z,3.94
2017-02-02T06:37:09.293Z,3.96
2017-02-02T06:38:20.039Z,4.03
2017-02-02T06:39:30.802Z,4.1
2017-02-02T06:40:41.143Z,4.03
2017-02-02T06:41:51.884Z,4
2017-02-02T06:43:02.215Z,4.04
2017-02-02T06:44:12.574Z,4.07
2017-02-02T06:45:22.911Z,4.12
2017-02-02T06:46:33.649Z,4.12
2017-02-02T06:47:44.398Z,4.15
2017-02-02T06:48:54.741Z,4.14
2017-02-02T06:50:04.692Z,4.15
2017-02-02T06:51:14.645Z,4.18
2017-02-02T06:52:25.627Z,4.17
2017-02-02T06:53:35.581Z,4.2
2017-02-02T06:54:46.326Z,4.15
2017-02-02T06:55:57.089Z,4.21
2017-02-02T06:57:07.826Z,4.2
2017-02-02T06:58:18.175Z,4.2
2017-02-02T06:59:28.915Z,4.21
2017-02-02T07:00:39.263Z,4.22
2017-02-02T07:01:49.618Z,4.29
2017-02-02T07:02:59.982Z,4.33
2017-02-02T07:04:09.933Z,4.35
2017-02-02T07:05:19.890Z,4.54
2017-02-02T07:06:30.647Z,4.47
2017-02-02T07:07:41.011Z,4.48
2017-02-02T07:08:51.761Z,4.51
2017-02-02T07:10:02.115Z,4.53
2017-02-02T07:11:12.848Z,4.6
2017-02-02T07:12:22.795Z,4.58
2017-02-02T07:13:32.357Z,4.71
2017-02-02T07:14:43.111Z,4.69
2017-02-02T07:15:53.856Z,4.68
2017-02-02T07:17:04.601Z,4.76
2017-02-02T07:18:14.962Z,4.85
2017-02-02T07:19:25.700Z,4.85
2017-02-02T07:20:36.042Z,4.83
2017-02-02T07:21:46.413Z,4.94
2017-02-02T07:22:56.779Z,4.95
2017-02-02T07:24:07.530Z,4.94
2017-02-02T07:25:17.091Z,5.02
2017-02-02T07:26:27.065Z,4.94
2017-02-02T07:27:36.618Z,4.94
2017-02-02T07:28:47.365Z,4.97
2017-02-02T07:29:57.327Z,4.95
2017-02-02T07:31:07.289Z,4.94
2017-02-02T07:32:17.257Z,4.94
2017-02-02T07:33:27.598Z,4.95
2017-02-02T07:34:37.943Z,5
2017-02-02T07:35:47.909Z,5.06
2017-02-02T07:36:58.661Z,5.09
2017-02-02T07:38:09.403Z,5.08
2017-02-02T07:39:20.147Z,5.08
2017-02-02T07:40:31.102Z,5.16
2017-02-02T07:41:41.064Z,5.16
2017-02-02T07:42:51.804Z,5.1
2017-02-02T07:44:02.542Z,5.18
2017-02-02T07:45:13.288Z,5.13
2017-02-02T07:46:24.047Z,5.2
2017-02-02T07:47:33.620Z,5.15
2017-02-02T07:48:43.967Z,5.27
2017-02-02T07:49:54.704Z,5.21
2017-02-02T07:51:05.052Z,5.26
2017-02-02T07:52:15.797Z,5.3
2017-02-02T07:53:26.536Z,5.3
2017-02-02T07:54:36.503Z,5.41
2017-02-02T07:55:47.239Z,5.42
2017-02-02T07:56:57.981Z,5.62
2017-02-02T07:58:07.941Z,5.67
2017-02-02T07:59:18.294Z,5.67
2017-02-02T08:00:29.041Z,5.67
2017-02-02T08:01:39.793Z,5.66
2017-02-02T08:02:50.147Z,5.8
2017-02-02T08:04:00.108Z,5.78
2017-02-02T08:05:10.472Z,5.81
2017-02-02T08:06:21.215Z,5.84
2017-02-02T08:07:31.809Z,5.92
2017-02-02T08:08:42.161Z,5.99
2017-02-02T08:09:52.905Z,6.05
2017-02-02T08:11:03.653Z,6.1
2017-02-02T08:12:14.396Z,6.1
2017-02-02T08:13:24.748Z,6.28
2017-02-02T08:14:34.746Z,6.28
2017-02-02T08:15:45.522Z,6.28
2017-02-02T08:16:55.083Z,6.31
2017-02-02T08:18:05.826Z,6.29
2017-02-02T08:19:16.179Z,6.26
2017-02-02T08:20:26.128Z,6.26
2017-02-02T08:21:36.491Z,6.29
2017-02-02T08:22:47.238Z,6.46
2017-02-02T08:23:57.599Z,6.34
2017-02-02T08:25:07.952Z,6.47
2017-02-02T08:26:18.345Z,6.55
2017-02-02T08:27:29.096Z,6.51
2017-02-02T08:28:39.834Z,6.51
2017-02-02T08:29:50.608Z,6.47
2017-02-02T08:31:01.352Z,6.51
2017-02-02T08:32:12.097Z,6.49
2017-02-02T08:33:22.067Z,6.46
2017-02-02T08:34:32.810Z,6.49
2017-02-02T08:35:43.559Z,6.44
2017-02-02T08:36:53.914Z,6.34
2017-02-02T08:38:04.276Z,6.33
2017-02-02T08:39:14.649Z,6.33
2017-02-02T08:40:25.390Z,6.33
2017-02-02T08:41:36.177Z,6.37
2017-02-02T08:42:46.512Z,6.29
2017-02-02T08:43:56.462Z,6.29
2017-02-02T08:45:06.445Z,6.13
2017-02-02T08:46:16.401Z,6.24
2017-02-02T08:47:26.763Z,6.25
2017-02-02T08:48:36.746Z,6.33
2017-02-02T08:49:47.503Z,6.34
2017-02-02T08:50:57.894Z,6.49
2017-02-02T08:52:08.641Z,6.4
2017-02-02T08:53:19.394Z,6.43
2017-02-02T08:54:30.150Z,6.43
2017-02-02T08:55:40.916Z,6.37
2017-02-02T08:56:51.654Z,6.47
2017-02-02T08:58:02.413Z,6.58
2017-02-02T08:59:12.382Z,6.67
2017-02-02T09:00:22.753Z,6.78
2017-02-02T09:01:32.726Z,6.76
2017-02-02T09:02:43.075Z,6.8
2017-02-02T09:03:53.450Z,6.83
2017-02-02T09:05:03.399Z,6.8
2017-02-02T09:06:13.363Z,6.79
2017-02-02T09:07:23.729Z,6.98
2017-02-02T09:08:33.690Z,6.98
2017-02-02T09:09:44.451Z,7.09
2017-02-02T09:10:55.203Z,7.23
2017-02-02T09:12:05.168Z,7.22
2017-02-02T09:13:15.921Z,7.33
2017-02-02T09:14:26.711Z,7.47
2017-02-02T09:15:37.459Z,7.63
2017-02-02T09:16:48.228Z,7.86
2017-02-02T09:17:58.965Z,7.89
2017-02-02T09:19:09.712Z,8.09
2017-02-02T09:20:19.665Z,8.22
2017-02-02T09:21:30.010Z,8.13
2017-02-02T09:22:40.355Z,8.31
2017-02-02T09:23:50.703Z,8.35
2017-02-02T09:25:01.053Z,8.46
2017-02-02T09:26:11.420Z,8.47
2017-02-02T09:27:21.769Z,8.6
2017-02-02T09:28:31.729Z,8.54
2017-02-02T09:29:42.078Z,8.64
2017-02-02T09:30:52.033Z,8.53
2017-02-02T09:32:02.380Z,8.6
2017-02-02T09:33:12.762Z,8.46
2017-02-02T09:34:22.728Z,8.49
2017-02-02T09:35:33.701Z,8.34
2017-02-02T09:36:44.065Z,8.25
2017-02-02T09:37:54.809Z,8.22
2017-02-02T09:39:05.557Z,8.22
2017-02-02T09:40:15.127Z,8.22
2017-02-02T09:41:25.483Z,8.14
2017-02-02T09:42:35.854Z,8.14
2017-02-02T09:43:46.595Z,7.95
2017-02-02T09:44:57.354Z,7.93
2017-02-02T09:46:08.117Z,7.88
2017-02-02T09:47:18.865Z,7.86
2017-02-02T09:48:29.644Z,7.88
2017-02-02T09:49:40.392Z,7.91
2017-02-02T09:50:51.128Z,7.75
2017-02-02T09:52:01.707Z,7.78
2017-02-02T09:53:12.453Z,7.75
2017-02-02T09:54:23.186Z,7.77
2017-02-02T09:55:33.920Z,7.85
2017-02-02T09:56:43.882Z,7.85
2017-02-02T09:57:53.839Z,7.77
2017-02-02T09:59:04.598Z,7.7
2017-02-02T10:00:15.348Z,7.64
2017-02-02T10:01:25.708Z,7.64
2017-02-02T10:02:36.456Z,7.51
2017-02-02T10:03:46.423Z,7.55
2017-02-02T10:04:56.786Z,7.45
2017-02-02T10:06:07.148Z,7.48
2017-02-02T10:07:17.106Z,7.36
2017-02-02T10:08:27.052Z,7.37
2017-02-02T10:09:37.804Z,7.37
2017-02-02T10:10:48.159Z,7.4
2017-02-02T10:11:58.915Z,7.33
2017-02-02T10:13:09.687Z,7.44
2017-02-02T10:14:19.664Z,7.47
2017-02-02T10:15:29.228Z,7.52
2017-02-02T10:16:39.968Z,7.7
2017-02-02T10:17:50.321Z,7.71
2017-02-02T10:19:01.083Z,7.86
2017-02-02T10:20:11.828Z,8.01
2017-02-02T10:21:22.590Z,8.01
2017-02-02T10:22:32.557Z,8.13
2017-02-02T10:23:42.914Z,8.14
2017-02-02T10:24:52.893Z,8.14
2017-02-02T10:26:03.349Z,8.25
2017-02-02T10:27:13.732Z,8.17
2017-02-02T10:28:24.476Z,8.14
2017-02-02T10:29:35.219Z,8.07
2017-02-02T10:30:45.582Z,8.01
2017-02-02T10:31:55.927Z,8.03
2017-02-02T10:33:05.907Z,7.89
2017-02-02T10:34:16.266Z,7.78
2017-02-02T10:35:27.026Z,7.82
2017-02-02T10:36:37.778Z,7.61
2017-02-02T10:37:48.529Z,7.54
2017-02-02T10:38:58.911Z,7.47
2017-02-02T10:40:09.268Z,7.34
2017-02-02T10:41:19.247Z,7.3
2017-02-02T10:42:30.007Z,7.29
2017-02-02T10:43:40.366Z,7.26
2017-02-02T10:44:51.119Z,7.19
2017-02-02T10:46:01.109Z,7.12
2017-02-02T10:47:11.472Z,7.05
2017-02-02T10:48:21.841Z,7
2017-02-02T10:49:32.577Z,6.98
2017-02-02T10:50:42.145Z,7.05
2017-02-02T10:51:52.503Z,6.98
2017-02-02T10:53:03.251Z,7.11
2017-02-02T10:54:13.644Z,7.08
2017-02-02T10:55:24.384Z,7.11
2017-02-02T10:56:34.743Z,7.18
2017-02-02T10:57:45.095Z,7.15
2017-02-02T10:58:55.459Z,7.15
2017-02-02T11:00:06.228Z,7.19
2017-02-02T11:01:16.623Z,7.16
2017-02-02T11:02:27.381Z,7.11
2017-02-02T11:03:38.142Z,7.08
2017-02-02T11:04:48.188Z,7.13
2017-02-02T11:05:58.951Z,7.11
2017-02-02T11:07:09.748Z,7.11
2017-02-02T11:08:19.720Z,7.05
2017-02-02T11:09:30.075Z,7.12
2017-02-02T11:10:40.048Z,7.16
2017-02-02T11:11:50.481Z,7.08
2017-02-02T11:13:00.854Z,7.04
2017-02-02T11:14:11.619Z,7.01
2017-02-02T11:15:21.998Z,7.05
2017-02-02T11:16:32.747Z,7.12
2017-02-02T11:17:43.098Z,7.13
2017-02-02T11:18:53.444Z,7.21
2017-02-02T11:20:03.846Z,7.34
2017-02-02T11:21:14.618Z,7.44
2017-02-02T11:22:25.374Z,7.56
2017-02-02T11:23:36.133Z,7.67
2017-02-02T11:24:46.124Z,7.7
2017-02-02T11:25:55.291Z,7.74
2017-02-02T11:27:06.041Z,7.82
2017-02-02T11:28:16.409Z,7.8
2017-02-02T11:29:26.774Z,7.85
2017-02-02T11:30:37.123Z,7.89
2017-02-02T11:31:47.874Z,7.8
2017-02-02T11:32:58.269Z,7.86
2017-02-02T11:34:08.659Z,7.85
2017-02-02T11:35:19.422Z,7.82
2017-02-02T11:36:29.386Z,7.89
2017-02-02T11:37:40.155Z,7.99
2017-02-02T11:38:50.524Z,7.99
2017-02-02T11:40:01.303Z,8.1
2017-02-02T11:41:12.082Z,8.04
2017-02-02T11:42:22.847Z,8.13
2017-02-02T11:43:33.209Z,8.17
2017-02-02T11:44:43.567Z,8.17
2017-02-02T11:45:54.304Z,8.13
2017-02-02T11:47:04.277Z,8.07
2017-02-02T11:48:14.648Z,8.07
2017-02-02T11:49:25.015Z,8.11
2017-02-02T11:50:35.755Z,8.14
2017-02-02T11:51:45.722Z,8.17
2017-02-02T11:52:56.463Z,8.19
2017-02-02T11:54:06.421Z,8.31
2017-02-02T11:55:16.800Z,8.42
2017-02-02T11:56:27.565Z,8.65
2017-02-02T11:57:38.326Z,8.77
2017-02-02T11:58:49.131Z,8.85
2017-02-02T11:59:59.491Z,8.92
2017-02-02T12:01:10.296Z,8.94
2017-02-02T12:02:20.264Z,8.94
2017-02-02T12:03:31.019Z,8.98
2017-02-02T12:04:41.891Z,8.94
2017-02-02T12:05:52.689Z,8.8
2017-02-02T12:07:03.061Z,8.69
2017-02-02T12:08:13.834Z,8.57
2017-02-02T12:09:24.590Z,8.43
2017-02-02T12:10:34.941Z,8.43
2017-02-02T12:11:44.900Z,8.34
2017-02-02T12:12:55.649Z,8.16
2017-02-02T12:14:06.400Z,8.16
2017-02-02T12:15:16.747Z,8.14
2017-02-02T12:16:27.346Z,8.14
2017-02-02T12:17:37.700Z,8.22
2017-02-02T12:18:47.661Z,8.34
2017-02-02T12:19:58.422Z,8.17
2017-02-02T12:21:08.373Z,8.16
2017-02-02T12:22:19.129Z,8.03
2017-02-02T12:23:29.500Z,8.03
2017-02-02T12:24:39.867Z,8.01
2017-02-02T12:25:50.606Z,8.01
2017-02-02T12:27:00.979Z,7.98
2017-02-02T12:28:11.717Z,7.99
2017-02-02T12:29:22.473Z,7.89
2017-02-02T12:30:33.212Z,7.99
2017-02-02T12:31:43.572Z,7.99
2017-02-02T12:32:54.339Z,7.92
2017-02-02T12:34:04.731Z,7.98
2017-02-02T12:35:15.093Z,7.99
2017-02-02T12:36:25.829Z,7.96
2017-02-02T12:37:35.774Z,7.86
2017-02-02T12:38:46.118Z,7.89
2017-02-02T12:39:56.855Z,7.92
2017-02-02T12:41:07.256Z,7.78
2017-02-02T12:42:18.012Z,7.91
2017-02-02T12:43:28.369Z,7.8
2017-02-02T12:44:38.720Z,7.82
2017-02-02T12:45:48.677Z,7.88
2017-02-02T12:46:59.431Z,7.89
2017-02-02T12:48:10.201Z,7.93
2017-02-02T12:49:20.159Z,7.89
2017-02-02T12:50:30.904Z,7.89
2017-02-02T12:51:41.650Z,7.85
2017-02-02T12:52:52.006Z,7.85
2017-02-02T12:54:02.379Z,7.77
2017-02-02T12:55:11.946Z,7.74
2017-02-02T12:56:22.282Z,7.67
2017-02-02T12:57:32.687Z,7.56
2017-02-02T12:58:42.651Z,7.59
2017-02-02T12:59:53.404Z,7.49
2017-02-02T13:01:03.365Z,7.34
2017-02-02T13:02:14.112Z,7.36
2017-02-02T13:03:24.889Z,7.29
2017-02-02T13:04:35.665Z,7.23
2017-02-02T13:05:46.437Z,7.19
2017-02-02T13:06:56.003Z,7.16
2017-02-02T13:08:06.373Z,7.13
2017-02-02T13:09:17.134Z,7.19
2017-02-02T13:10:27.884Z,7.16
2017-02-02T13:11:38.854Z,7.16
2017-02-02T13:12:49.596Z,7.12
2017-02-02T13:13:59.948Z,7.08
2017-02-02T13:15:10.318Z,7.03
2017-02-02T13:16:21.068Z,6.91
2017-02-02T13:17:31.428Z,6.82
2017-02-02T13:18:41.390Z,6.75
2017-02-02T13:19:52.169Z,6.78
2017-02-02T13:21:02.959Z,6.68
2017-02-02T13:22:13.317Z,6.75
2017-02-02T13:23:24.093Z,6.61
2017-02-02T13:24:34.835Z,6.67
2017-02-02T13:25:45.579Z,6.68
2017-02-02T13:26:56.323Z,6.61
2017-02-02T13:28:06.687Z,6.54
2017-02-02T13:29:17.081Z,6.55
2017-02-02T13:30:27.835Z,6.49
2017-02-02T13:31:38.214Z,6.47
2017-02-02T13:32:48.984Z,6.43
2017-02-02T13:33:59.358Z,6.49
2017-02-02T13:35:10.125Z,6.43
2017-02-02T13:36:20.088Z,6.33
2017-02-02T13:37:30.436Z,6.44
2017-02-02T13:38:41.190Z,6.39
2017-02-02T13:39:51.953Z,6.39
2017-02-02T13:41:02.306Z,6.42
2017-02-02T13:42:12.680Z,6.34
2017-02-02T13:43:22.638Z,6.25
2017-02-02T13:44:33.379Z,6.28
2017-02-02T13:45:43.344Z,6.25
2017-02-02T13:46:53.695Z,6.24
2017-02-02T13:48:04.497Z,6.14
2017-02-02T13:49:14.883Z,6.09
2017-02-02T13:50:25.079Z,6.21
2017-02-02T13:51:35.090Z,6.07
2017-02-02T13:52:45.985Z,5.98
2017-02-02T13:53:56.730Z,5.92
2017-02-02T13:55:07.523Z,5.85
2017-02-02T13:56:17.884Z,5.87
2017-02-02T13:57:28.636Z,5.78
2017-02-02T13:58:38.983Z,5.81
2017-02-02T13:59:49.351Z,5.73
2017-02-02T14:01:00.096Z,5.78
2017-02-02T14:02:10.440Z,5.8
2017-02-02T14:03:21.171Z,5.7
2017-02-02T14:04:31.925Z,5.62
2017-02-02T14:05:42.316Z,5.75
2017-02-02T14:06:52.667Z,5.77
2017-02-02T14:08:02.623Z,5.75
2017-02-02T14:09:12.984Z,5.67
2017-02-02T14:10:23.326Z,5.73
2017-02-02T14:11:33.695Z,5.59
2017-02-02T14:12:44.446Z,5.57
2017-02-02T14:13:54.805Z,5.62
2017-02-02T14:15:05.546Z,5.59
2017-02-02T14:16:15.899Z,5.51
2017-02-02T14:17:26.251Z,5.46
2017-02-02T14:18:36.604Z,5.48
2017-02-02T14:19:47.373Z,5.48
2017-02-02T14:20:58.124Z,5.42
2017-02-02T14:22:08.076Z,5.42
2017-02-02T14:23:18.436Z,5.31
2017-02-02T14:24:28.789Z,5.39
2017-02-02T14:25:39.549Z,5.41
2017-02-02T14:26:50.305Z,5.37
2017-02-02T14:28:00.660Z,5.28
2017-02-02T14:29:11.401Z,5.34
2017-02-02T14:30:21.361Z,5.3
2017-02-02T14:31:32.164Z,5.34
2017-02-02T14:32:42.939Z,5.26
2017-02-02T14:33:53.707Z,5.26
2017-02-02T14:35:04.060Z,5.26
2017-02-02T14:36:14.424Z,5.31
2017-02-02T14:37:25.180Z,5.41
2017-02-02T14:38:35.530Z,5.36
2017-02-02T14:39:46.278Z,5.44
2017-02-02T14:40:56.632Z,5.41
2017-02-02T14:42:06.598Z,5.26
2017-02-02T14:43:16.959Z,5.42
2017-02-02T14:44:27.721Z,5.48
2017-02-02T14:45:38.467Z,5.51
2017-02-02T14:46:48.823Z,5.54
2017-02-02T14:47:59.575Z,5.45
2017-02-02T14:49:09.939Z,5.57
2017-02-02T14:50:20.291Z,5.59
2017-02-02T14:51:30.657Z,5.52
2017-02-02T14:52:41.404Z,5.46
2017-02-02T14:53:52.158Z,5.44
2017-02-02T14:55:02.505Z,5.51
2017-02-02T14:56:12.857Z,5.41
2017-02-02T14:57:23.640Z,5.42
2017-02-02T14:58:34.412Z,5.41
2017-02-02T14:59:44.825Z,5.34
2017-02-02T15:00:55.624Z,5.42
2017-02-02T15:02:05.973Z,5.39
2017-02-02T15:03:15.928Z,5.34
2017-02-02T15:04:26.704Z,5.3
2017-02-02T15:05:37.479Z,5.24
2017-02-02T15:06:47.829Z,5.27
2017-02-02T15:07:58.571Z,5.21
2017-02-02T15:09:09.335Z,5.21
2017-02-02T15:10:20.088Z,5.23
2017-02-02T15:11:30.836Z,5.13
2017-02-02T15:12:40.795Z,5.16
2017-02-02T15:13:51.548Z,5.28
2017-02-02T15:15:02.317Z,5.13
2017-02-02T15:16:12.709Z,5.16
2017-02-02T15:17:23.552Z,5.16
2017-02-02T15:18:33.914Z,5.16
2017-02-02T15:19:43.889Z,5.18
2017-02-02T15:20:54.641Z,5.02
2017-02-02T15:22:04.999Z,5.13
2017-02-02T15:23:15.770Z,5.03
2017-02-02T15:24:26.531Z,5.08
2017-02-02T15:25:37.273Z,5.03
2017-02-02T15:26:48.049Z,4.98
2017-02-02T15:27:58.808Z,5
2017-02-02T15:29:09.588Z,4.97
2017-02-02T15:30:20.356Z,4.92
2017-02-02T15:31:31.112Z,4.94
2017-02-02T15:32:41.482Z,4.84
2017-02-02T15:33:52.251Z,4.88
2017-02-02T15:35:01.850Z,4.9
2017-02-02T15:36:12.252Z,4.87
2017-02-02T15:37:23.085Z,4.85
2017-02-02T15:38:33.866Z,4.79
2017-02-02T15:39:44.657Z,4.75
2017-02-02T15:40:55.487Z,4.75
2017-02-02T15:42:06.280Z,4.76
2017-02-02T15:43:17.037Z,4.71
2017-02-02T15:44:27.389Z,4.69
2017-02-02T15:45:38.149Z,4.56
2017-02-02T15:46:48.497Z,4.68
2017-02-02T15:47:58.872Z,4.66
2017-02-02T15:49:08.840Z,4.71
2017-02-02T15:50:18.808Z,4.68
2017-02-02T15:51:28.776Z,4.6
2017-02-02T15:52:39.158Z,4.65
2017-02-02T15:53:49.920Z,4.71
2017-02-02T15:55:00.692Z,4.68
2017-02-02T15:56:11.049Z,4.71
2017-02-02T15:57:21.010Z,4.68
2017-02-02T15:58:31.026Z,4.71
2017-02-02T15:59:41.379Z,4.72
2017-02-02T16:00:52.147Z,4.65
2017-02-02T16:02:02.892Z,4.74
2017-02-02T16:03:12.458Z,4.78
2017-02-02T16:04:22.428Z,4.72
2017-02-02T16:05:33.170Z,4.66
2017-02-02T16:06:43.917Z,4.68
2017-02-02T16:07:54.672Z,4.72
2017-02-02T16:09:05.015Z,4.65
2017-02-02T16:10:15.781Z,4.71
2017-02-02T16:11:26.150Z,4.66
2017-02-02T16:12:36.112Z,4.65